createdAt,value
2024-03-08T00:00:34.229Z,8.50
2024-03-08T00:03:03.872Z,8.50
2024-03-08T00:05:31.591Z,8.60
2024-03-08T00:08:01.866Z,8.60
2024-03-08T00:10:30.211Z,8.40
2024-03-08T00:12:59.264Z,8.40
2024-03-08T00:15:27.209Z,8.60
2024-03-08T00:17:55.298Z,8.60
2024-03-08T00:20:25.390Z,8.60
2024-03-08T00:22:53.704Z,8.40
2024-03-08T00:25:22.585Z,8.40
2024-03-08T00:27:51.443Z,8.40
2024-03-08T00:30:18.968Z,8.30
2024-03-08T00:32:46.443Z,8.30
2024-03-08T00:35:14.189Z,8.40
2024-03-08T00:37:43.261Z,8.40
2024-03-08T00:40:12.520Z,8.50
2024-03-08T00:42:41.292Z,8.50
2024-03-08T00:45:09.430Z,8.50
2024-03-08T00:47:36.888Z,8.40
2024-03-08T00:50:09.281Z,8.10
2024-03-08T00:52:38.356Z,8.00
2024-03-08T00:55:07.064Z,8.10
2024-03-08T00:57:35.334Z,8.10
2024-03-08T01:00:05.718Z,8.20
2024-03-08T01:02:37.713Z,8.10
2024-03-08T01:05:08.832Z,8.20
2024-03-08T01:07:37.494Z,8.20
2024-03-08T01:10:05.862Z,8.10
2024-03-08T01:12:33.534Z,8.10
2024-03-08T01:15:01.056Z,8.10
2024-03-08T01:17:28.633Z,7.90
2024-03-08T01:19:56.203Z,8.10
2024-03-08T01:22:24.116Z,8.20
2024-03-08T01:24:51.453Z,8.20
2024-03-08T01:27:19.809Z,8.30
2024-03-08T01:29:47.636Z,8.00
2024-03-08T01:32:18.605Z,7.90
2024-03-08T01:34:49.431Z,7.90
2024-03-08T01:37:16.935Z,7.80
2024-03-08T01:39:44.614Z,7.60
2024-03-08T01:42:16.875Z,7.70
2024-03-08T01:44:45.237Z,7.60
2024-03-08T01:47:13.216Z,7.60
2024-03-08T01:49:42.503Z,7.60
2024-03-08T01:52:09.961Z,7.60
2024-03-08T01:54:37.612Z,7.60
2024-03-08T01:57:23.291Z,7.50
2024-03-08T01:59:52.133Z,7.60
2024-03-08T02:02:21.318Z,7.70
2024-03-08T02:04:49.023Z,7.80
2024-03-08T02:07:16.457Z,8.00
2024-03-08T02:09:44.426Z,8.00
2024-03-08T02:12:12.393Z,7.60
2024-03-08T02:14:41.545Z,7.60
2024-03-08T02:17:09.058Z,7.50
2024-03-08T02:19:37.692Z,7.50
2024-03-08T02:22:05.922Z,7.40
2024-03-08T02:24:34.804Z,7.50
2024-03-08T02:27:02.777Z,7.50
2024-03-08T02:29:30.559Z,7.50
2024-03-08T02:31:58.647Z,7.50
2024-03-08T02:34:25.911Z,7.50
2024-03-08T02:36:53.173Z,7.50
2024-03-08T02:39:21.322Z,7.60
2024-03-08T02:41:48.843Z,7.60
2024-03-08T02:44:16.301Z,7.60
2024-03-08T02:46:43.579Z,7.70
2024-03-08T02:49:13.183Z,7.70
2024-03-08T02:51:40.428Z,7.70
2024-03-08T02:54:07.995Z,7.80
2024-03-08T02:56:36.464Z,7.80
2024-03-08T02:59:04.252Z,7.70
2024-03-08T03:01:33.349Z,7.70
2024-03-08T03:04:01.264Z,7.70
2024-03-08T03:06:28.612Z,7.80
2024-03-08T03:08:55.966Z,7.90
2024-03-08T03:11:23.419Z,7.80
2024-03-08T03:13:50.970Z,7.80
2024-03-08T03:16:21.917Z,8.10
2024-03-08T03:18:49.371Z,8.10
2024-03-08T03:21:17.362Z,7.80
2024-03-08T03:23:44.677Z,7.90
2024-03-08T03:26:14.929Z,8.00
2024-03-08T03:28:42.282Z,8.00
2024-03-08T03:31:15.664Z,8.00
2024-03-08T03:33:43.403Z,8.00
2024-03-08T03:36:11.707Z,7.90
2024-03-08T03:38:39.213Z,8.00
2024-03-08T03:41:11.820Z,7.90
2024-03-08T03:43:40.311Z,7.90
2024-03-08T03:46:08.953Z,7.80
2024-03-08T03:48:36.353Z,7.90
2024-03-08T03:51:03.999Z,7.90
2024-03-08T03:53:31.447Z,7.90
2024-03-08T03:55:59.128Z,7.60
2024-03-08T03:58:28.814Z,7.60
2024-03-08T04:00:56.193Z,7.50
2024-03-08T04:03:23.553Z,7.50
2024-03-08T04:05:50.944Z,7.50
2024-03-08T04:08:18.375Z,7.50
2024-03-08T04:10:45.684Z,7.50
2024-03-08T04:13:14.174Z,7.40
2024-03-08T04:15:41.423Z,7.40
2024-03-08T04:18:08.802Z,7.30
2024-03-08T04:20:36.199Z,7.30
2024-03-08T04:23:04.226Z,7.30
2024-03-08T04:25:32.230Z,7.20
2024-03-08T04:27:59.720Z,7.30
2024-03-08T04:30:29.477Z,7.30
2024-03-08T04:32:57.078Z,7.20
2024-03-08T04:35:24.417Z,7.20
2024-03-08T04:37:52.313Z,7.00
2024-03-08T04:40:20.414Z,7.00
2024-03-08T04:42:47.927Z,6.90
2024-03-08T04:45:15.333Z,6.90
2024-03-08T04:47:42.712Z,7.00
2024-03-08T04:50:10.747Z,7.00
2024-03-08T04:52:38.061Z,7.00
2024-03-08T04:55:06.981Z,7.00
2024-03-08T04:57:34.359Z,7.20
2024-03-08T05:00:03.834Z,7.10
2024-03-08T05:02:31.370Z,7.00
2024-03-08T05:04:58.573Z,6.70
2024-03-08T05:07:25.835Z,6.50
2024-03-08T05:09:53.478Z,6.60
2024-03-08T05:12:21.123Z,6.80
2024-03-08T05:14:51.448Z,6.70
2024-03-08T05:17:19.205Z,6.70
2024-03-08T05:19:46.877Z,6.80
2024-03-08T05:22:15.269Z,6.90
2024-03-08T05:24:42.566Z,6.80
2024-03-08T05:27:09.988Z,6.90
2024-03-08T05:29:37.349Z,6.90
2024-03-08T05:32:05.352Z,6.90
2024-03-08T05:34:32.706Z,7.10
2024-03-08T05:37:01.582Z,7.10
2024-03-08T05:39:29.162Z,7.10
2024-03-08T05:41:57.248Z,7.10
2024-03-08T05:44:24.627Z,7.00
2024-03-08T05:46:52.136Z,6.90
2024-03-08T05:49:19.456Z,7.00
2024-03-08T05:51:49.272Z,7.10
2024-03-08T05:54:19.091Z,7.00
2024-03-08T05:56:49.215Z,7.20
2024-03-08T05:59:16.793Z,7.10
2024-03-08T06:01:44.676Z,7.00
2024-03-08T06:04:15.772Z,7.40
2024-03-08T06:06:42.994Z,7.70
2024-03-08T06:09:13.395Z,7.80
2024-03-08T06:11:41.467Z,7.80
2024-03-08T06:14:09.072Z,8.00
2024-03-08T06:16:37.393Z,7.90
2024-03-08T06:19:05.114Z,8.00
2024-03-08T06:21:33.751Z,8.00
2024-03-08T06:24:01.753Z,8.00
2024-03-08T06:26:30.941Z,8.10
2024-03-08T06:28:59.568Z,8.10
2024-03-08T06:31:27.182Z,8.10
2024-03-08T06:33:57.173Z,8.10
2024-03-08T06:36:25.314Z,8.10
2024-03-08T06:38:53.247Z,7.90
2024-03-08T06:41:21.245Z,7.80
2024-03-08T06:43:50.460Z,7.60
2024-03-08T06:46:17.975Z,7.90
2024-03-08T06:48:47.715Z,8.10
2024-03-08T06:51:16.106Z,7.80
2024-03-08T06:53:43.885Z,7.80
2024-03-08T06:56:12.359Z,8.00
2024-03-08T06:58:40.615Z,8.10
2024-03-08T07:01:15.567Z,8.40
2024-03-08T07:03:46.052Z,8.60
2024-03-08T07:06:16.850Z,8.70
2024-03-08T07:08:47.328Z,8.70
2024-03-08T07:11:17.301Z,8.90
2024-03-08T07:13:44.643Z,8.90
2024-03-08T07:16:13.302Z,8.90
2024-03-08T07:18:45.583Z,8.80
2024-03-08T07:21:13.212Z,8.90
2024-03-08T07:24:10.940Z,9.00
2024-03-08T07:26:39.777Z,9.00
2024-03-08T07:29:07.009Z,9.00
2024-03-08T07:32:01.227Z,9.10
2024-03-08T07:34:28.755Z,9.00
2024-03-08T07:36:57.752Z,9.10
2024-03-08T07:39:25.104Z,9.30
2024-03-08T07:41:54.025Z,9.40
2024-03-08T07:44:21.358Z,9.20
2024-03-08T07:46:48.651Z,9.10
2024-03-08T07:49:16.618Z,9.10
2024-03-08T07:51:45.686Z,9.30
2024-03-08T07:54:13.399Z,9.40
2024-03-08T07:56:40.704Z,9.60
2024-03-08T07:59:08.673Z,9.60
2024-03-08T08:01:36.510Z,9.70
2024-03-08T08:04:07.962Z,9.90
2024-03-08T08:06:36.202Z,10.00
2024-03-08T08:09:03.460Z,10.10
2024-03-08T08:11:30.810Z,10.50
2024-03-08T08:13:58.186Z,10.70
2024-03-08T08:16:27.116Z,10.80
2024-03-08T08:18:54.539Z,11.00
2024-03-08T08:21:23.438Z,10.90
2024-03-08T08:23:50.784Z,11.00
2024-03-08T08:26:18.114Z,11.40
2024-03-08T08:28:47.433Z,11.40
2024-03-08T08:31:14.755Z,11.40
2024-03-08T08:33:42.118Z,11.50
2024-03-08T08:36:09.742Z,11.60
2024-03-08T08:38:38.064Z,11.60
2024-03-08T08:41:06.625Z,11.70
2024-03-08T08:43:35.429Z,11.60
2024-03-08T08:46:03.617Z,11.60
2024-03-08T08:48:31.962Z,11.80
2024-03-08T08:50:59.162Z,12.00
2024-03-08T08:53:26.386Z,12.00
2024-03-08T08:55:54.737Z,12.00
2024-03-08T08:58:22.047Z,12.30
2024-03-08T09:00:49.432Z,12.50
2024-03-08T09:03:18.437Z,12.60
2024-03-08T09:05:46.380Z,12.90
2024-03-08T09:08:14.369Z,12.90
2024-03-08T09:10:41.882Z,12.80
2024-03-08T09:13:15.480Z,12.80
2024-03-08T09:15:45.723Z,12.90
2024-03-08T09:18:12.987Z,13.40
2024-03-08T09:20:43.190Z,13.30
2024-03-08T09:23:10.517Z,13.30
2024-03-08T09:25:37.839Z,13.30
2024-03-08T09:28:07.078Z,13.50
2024-03-08T09:30:35.728Z,13.30
2024-03-08T09:33:03.571Z,13.50
2024-03-08T09:35:31.365Z,13.80
2024-03-08T09:37:58.670Z,13.70
2024-03-08T09:40:26.954Z,13.80
2024-03-08T09:42:54.348Z,13.30
2024-03-08T09:45:26.289Z,13.00
2024-03-08T09:47:54.548Z,12.80
2024-03-08T09:50:22.984Z,12.80
2024-03-08T09:52:51.709Z,12.90
2024-03-08T09:55:23.931Z,13.00
2024-03-08T09:58:11.420Z,13.20
2024-03-08T10:00:39.054Z,13.40
2024-03-08T10:03:06.778Z,13.70
2024-03-08T10:05:35.079Z,13.70
2024-03-08T10:08:02.442Z,13.70
2024-03-08T10:10:29.998Z,13.90
2024-03-08T10:12:58.088Z,14.10
2024-03-08T10:15:25.561Z,14.50
2024-03-08T10:17:54.596Z,14.20
2024-03-08T10:20:22.364Z,14.10
2024-03-08T10:22:58.560Z,14.20
2024-03-08T10:25:36.007Z,14.50
2024-03-08T10:28:07.549Z,14.80
2024-03-08T10:30:34.812Z,15.30
2024-03-08T10:33:03.808Z,15.20
2024-03-08T10:35:32.396Z,15.20
2024-03-08T10:38:04.455Z,15.50
2024-03-08T10:40:31.990Z,16.10
2024-03-08T10:43:00.768Z,15.70
2024-03-08T10:45:39.066Z,15.40
2024-03-08T10:48:24.686Z,15.40
2024-03-08T10:50:54.502Z,15.60
2024-03-08T10:53:25.288Z,15.60
2024-03-08T10:55:55.007Z,15.60
2024-03-08T10:58:24.764Z,15.90
2024-03-08T11:00:52.162Z,15.90
2024-03-08T11:03:41.298Z,16.00
2024-03-08T11:06:10.819Z,16.10
2024-03-08T11:08:38.164Z,16.40
2024-03-08T11:11:06.038Z,16.30
2024-03-08T11:13:38.414Z,16.90
2024-03-08T11:16:11.219Z,21.00
2024-03-08T11:18:39.776Z,19.50
2024-03-08T11:21:14.170Z,17.80
2024-03-08T11:23:41.856Z,16.90
2024-03-08T11:26:22.160Z,17.20
2024-03-08T11:28:49.552Z,16.90
2024-03-08T11:31:22.778Z,17.20
2024-03-08T11:33:50.675Z,17.40
2024-03-08T11:36:25.766Z,17.80
2024-03-08T11:38:55.527Z,17.90
2024-03-08T11:41:24.674Z,18.20
2024-03-08T11:44:10.052Z,18.40
2024-03-08T11:46:37.448Z,18.30
2024-03-08T11:49:05.000Z,18.50
2024-03-08T11:51:34.008Z,18.20
2024-03-08T11:54:01.348Z,18.20
2024-03-08T11:56:29.186Z,18.50
2024-03-08T11:58:59.083Z,19.00
2024-03-08T12:01:29.615Z,18.70
2024-03-08T12:04:00.453Z,18.30
2024-03-08T12:06:38.959Z,19.40
2024-03-08T12:09:10.879Z,20.10
2024-03-08T12:11:39.379Z,19.60
2024-03-08T12:14:08.279Z,22.80
2024-03-08T12:16:39.091Z,27.30
2024-03-08T12:19:07.206Z,28.60
2024-03-08T12:21:35.987Z,30.60
2024-03-08T12:24:11.221Z,30.70
2024-03-08T12:26:40.006Z,29.70
2024-03-08T12:29:24.404Z,29.10
2024-03-08T12:31:56.779Z,27.10
2024-03-08T12:34:24.242Z,29.10
2024-03-08T12:37:00.385Z,31.00
2024-03-08T12:39:28.779Z,30.80
2024-03-08T12:41:58.618Z,30.80
2024-03-08T12:44:27.622Z,31.40
2024-03-08T12:46:55.446Z,29.80
2024-03-08T12:49:24.075Z,29.50
2024-03-08T12:51:54.357Z,28.50
2024-03-08T12:54:25.220Z,27.10
2024-03-08T12:56:55.295Z,28.70
2024-03-08T12:59:26.093Z,29.30
2024-03-08T13:01:55.555Z,28.60
2024-03-08T13:04:23.246Z,29.20
2024-03-08T13:06:54.845Z,30.20
2024-03-08T13:09:23.898Z,29.20
2024-03-08T13:11:51.486Z,29.20
2024-03-08T13:14:18.820Z,29.80
2024-03-08T13:16:51.170Z,29.90
2024-03-08T13:19:18.659Z,30.60
2024-03-08T13:21:50.946Z,30.00
2024-03-08T13:24:20.226Z,30.20
2024-03-08T13:26:49.238Z,30.80
2024-03-08T13:29:17.542Z,30.80
2024-03-08T13:31:44.849Z,30.20
2024-03-08T13:34:12.863Z,30.10
2024-03-08T13:36:45.742Z,30.50
2024-03-08T13:39:22.437Z,28.90
2024-03-08T13:41:49.734Z,29.90
2024-03-08T13:44:18.581Z,26.30
2024-03-08T13:46:51.074Z,28.60
2024-03-08T13:49:20.047Z,30.50
2024-03-08T13:51:48.305Z,31.00
2024-03-08T13:54:17.684Z,28.70
2024-03-08T13:56:46.196Z,27.40
2024-03-08T13:59:13.617Z,28.80
2024-03-08T14:01:40.963Z,29.80
2024-03-08T14:04:09.908Z,30.00
2024-03-08T14:09:09.847Z,28.00
2024-03-08T14:11:37.087Z,29.60
2024-03-08T14:14:04.406Z,30.60
2024-03-08T14:16:31.765Z,29.80
2024-03-08T14:19:04.849Z,30.90
2024-03-08T14:21:32.229Z,30.50
2024-03-08T14:23:59.565Z,30.10
2024-03-08T14:26:27.522Z,31.20
2024-03-08T14:28:55.825Z,31.90
2024-03-08T14:31:26.878Z,30.60
2024-03-08T14:33:54.290Z,30.00
2024-03-08T14:36:21.819Z,30.10
2024-03-08T14:38:48.998Z,29.50
2024-03-08T14:41:16.584Z,30.10
2024-03-08T14:43:47.191Z,30.10
2024-03-08T14:46:18.754Z,29.50
2024-03-08T14:48:49.440Z,30.00
2024-03-08T14:51:21.180Z,30.80
2024-03-08T14:53:51.075Z,30.40
2024-03-08T14:56:18.469Z,30.60
2024-03-08T14:58:50.748Z,30.40
2024-03-08T15:01:26.214Z,29.70
2024-03-08T15:03:53.400Z,26.60
2024-03-08T15:06:22.468Z,24.70
2024-03-08T15:08:49.999Z,22.40
2024-03-08T15:11:23.486Z,19.80
2024-03-08T15:13:54.606Z,18.80
2024-03-08T15:16:24.782Z,18.40
2024-03-08T15:18:53.287Z,21.10
2024-03-08T15:21:21.176Z,21.10
2024-03-08T15:23:53.669Z,25.00
2024-03-08T15:26:21.600Z,26.60
2024-03-08T15:28:53.461Z,26.30
2024-03-08T15:31:23.584Z,26.80
2024-03-08T15:33:54.247Z,26.60
2024-03-08T15:36:22.977Z,23.60
2024-03-08T15:38:52.954Z,21.20
2024-03-08T15:41:22.354Z,19.70
2024-03-08T15:43:51.350Z,18.70
2024-03-08T15:46:20.242Z,17.70
2024-03-08T15:48:48.372Z,18.10
2024-03-08T15:51:18.939Z,17.90
2024-03-08T15:53:54.310Z,17.30
2024-03-08T15:56:25.441Z,17.10
2024-03-08T15:58:54.727Z,18.80
2024-03-08T16:01:24.450Z,19.30
2024-03-08T16:03:52.406Z,20.20
2024-03-08T16:06:23.031Z,20.30
2024-03-08T16:08:51.008Z,19.00
2024-03-08T16:11:20.400Z,17.20
2024-03-08T16:13:48.043Z,16.60
2024-03-08T16:16:15.572Z,16.20
2024-03-08T16:18:43.320Z,16.30
2024-03-08T16:21:10.538Z,15.80
2024-03-08T16:23:39.881Z,15.80
2024-03-08T16:26:07.785Z,15.60
2024-03-08T16:28:43.169Z,15.50
2024-03-08T16:31:12.429Z,15.40
2024-03-08T16:33:40.602Z,15.40
2024-03-08T16:36:08.678Z,14.70
2024-03-08T16:38:38.465Z,14.70
2024-03-08T16:41:07.522Z,14.50
2024-03-08T16:43:35.032Z,14.20
2024-03-08T16:46:05.503Z,14.10
2024-03-08T16:48:33.810Z,14.00
2024-03-08T16:51:01.389Z,13.80
2024-03-08T16:53:29.707Z,13.80
2024-03-08T16:55:58.909Z,13.80
2024-03-08T16:58:26.884Z,13.70
2024-03-08T17:00:54.224Z,13.60
2024-03-08T17:03:22.419Z,13.60
2024-03-08T17:05:55.490Z,13.60
2024-03-08T17:08:24.079Z,13.50
2024-03-08T17:10:53.044Z,13.40
2024-03-08T17:13:20.703Z,13.30
2024-03-08T17:15:50.274Z,13.30
2024-03-08T17:18:18.246Z,13.30
2024-03-08T17:20:46.119Z,13.30
2024-03-08T17:23:15.207Z,13.30
2024-03-08T17:25:44.097Z,13.30
2024-03-08T17:28:13.476Z,13.20
2024-03-08T17:30:42.585Z,13.20
2024-03-08T17:33:20.384Z,13.10
2024-03-08T17:35:48.796Z,13.00
2024-03-08T17:38:19.842Z,13.10
2024-03-08T17:40:47.408Z,13.10
2024-03-08T17:43:15.416Z,13.10
2024-03-08T17:45:47.597Z,12.80
2024-03-08T17:48:18.438Z,12.80
2024-03-08T17:50:52.579Z,12.80
2024-03-08T17:53:20.487Z,12.80
2024-03-08T17:55:51.875Z,12.80
2024-03-08T17:58:20.208Z,12.70
2024-03-08T18:00:48.365Z,12.70
2024-03-08T18:03:20.054Z,12.70
2024-03-08T18:05:47.494Z,12.60
2024-03-08T18:08:17.335Z,12.60
2024-03-08T18:10:44.669Z,12.50
2024-03-08T18:13:15.345Z,12.40
2024-03-08T18:15:49.547Z,12.30
2024-03-08T18:18:19.106Z,12.20
2024-03-08T18:20:49.874Z,12.20
2024-03-08T18:23:22.791Z,12.10
2024-03-08T18:25:51.944Z,12.00
2024-03-08T18:28:22.656Z,12.10
2024-03-08T18:30:51.080Z,12.00
2024-03-08T18:33:19.658Z,12.00
2024-03-08T18:35:49.062Z,12.00
2024-03-08T18:38:24.162Z,12.00
2024-03-08T18:40:54.038Z,11.90
2024-03-08T18:43:30.501Z,11.80
2024-03-08T18:45:58.945Z,11.80
2024-03-08T18:48:30.962Z,11.70
2024-03-08T18:51:00.747Z,11.70
2024-03-08T18:53:33.972Z,11.50
2024-03-08T18:56:03.071Z,11.40
2024-03-08T18:58:42.295Z,11.30
2024-03-08T19:01:14.074Z,11.20
2024-03-08T19:03:42.813Z,11.10
2024-03-08T19:06:10.230Z,10.90
2024-03-08T19:08:38.290Z,10.80
2024-03-08T19:11:06.296Z,10.70
2024-03-08T19:13:34.859Z,10.80
2024-03-08T19:16:02.672Z,10.70
2024-03-08T19:18:31.324Z,10.60
2024-03-08T19:20:59.419Z,10.60
2024-03-08T19:23:28.064Z,10.60
2024-03-08T19:25:55.178Z,10.60
2024-03-08T19:28:23.109Z,10.60
2024-03-08T19:30:53.071Z,10.60
2024-03-08T19:33:22.250Z,10.60
2024-03-08T19:35:49.578Z,10.60
2024-03-08T19:38:17.272Z,10.60
2024-03-08T19:40:46.137Z,10.50
2024-03-08T19:43:17.402Z,10.50
2024-03-08T19:45:45.412Z,10.40
2024-03-08T19:48:22.597Z,10.30
2024-03-08T19:50:51.202Z,10.40
2024-03-08T19:53:19.542Z,10.30
2024-03-08T19:55:52.495Z,10.20
2024-03-08T19:58:22.102Z,10.30
2024-03-08T20:00:50.182Z,10.30
2024-03-08T20:03:23.510Z,10.30
2024-03-08T20:05:55.754Z,10.40
2024-03-08T20:08:35.226Z,10.40
2024-03-08T20:11:05.308Z,10.40
2024-03-08T20:13:36.347Z,10.50
2024-03-08T20:16:06.020Z,10.40
2024-03-08T20:18:34.084Z,10.30
2024-03-08T20:21:02.725Z,10.30
2024-03-08T20:23:31.122Z,10.40
2024-03-08T20:26:04.234Z,10.30
2024-03-08T20:28:35.398Z,10.20
2024-03-08T20:31:03.025Z,10.20
2024-03-08T20:33:33.456Z,10.10
2024-03-08T20:36:00.900Z,10.20
2024-03-08T20:38:28.835Z,10.20
2024-03-08T20:40:57.165Z,10.20
2024-03-08T20:43:29.741Z,10.10
2024-03-08T20:45:59.081Z,10.00
2024-03-08T20:48:26.485Z,10.00
2024-03-08T20:50:55.203Z,9.70
2024-03-08T20:53:25.289Z,9.70
2024-03-08T20:55:54.400Z,9.50
2024-03-08T20:58:24.431Z,9.50
2024-03-08T21:01:00.287Z,9.50
2024-03-08T21:03:28.807Z,9.50
2024-03-08T21:06:00.434Z,9.50
2024-03-08T21:08:29.007Z,9.40
2024-03-08T21:10:58.078Z,9.50
2024-03-08T21:13:27.117Z,9.40
2024-03-08T21:15:56.014Z,9.30
2024-03-08T21:18:26.924Z,9.30
2024-03-08T21:20:57.265Z,9.20
2024-03-08T21:23:26.864Z,9.10
2024-03-08T21:26:03.420Z,9.10
2024-03-08T21:28:31.318Z,9.10
2024-03-08T21:31:02.289Z,9.00
2024-03-08T21:33:30.586Z,9.00
2024-03-08T21:36:02.668Z,8.90
2024-03-08T21:38:30.545Z,8.80
2024-03-08T21:41:03.545Z,8.80
2024-03-08T21:43:36.435Z,8.80
2024-03-08T21:46:04.485Z,8.70
2024-03-08T21:48:36.228Z,8.70
2024-03-08T21:51:04.480Z,8.60
2024-03-08T21:53:35.540Z,8.50
2024-03-08T21:56:06.688Z,8.50
2024-03-08T21:58:34.861Z,8.40
2024-03-08T22:01:04.611Z,8.30
2024-03-08T22:03:33.024Z,8.30
2024-03-08T22:06:00.496Z,8.10
2024-03-08T22:08:28.399Z,8.10
2024-03-08T22:10:57.745Z,8.00
2024-03-08T22:13:25.691Z,8.00
2024-03-08T22:15:53.701Z,7.90
2024-03-08T22:18:21.269Z,7.80
2024-03-08T22:20:48.629Z,7.90
2024-03-08T22:23:18.158Z,8.00
2024-03-08T22:25:48.168Z,8.00
2024-03-08T22:28:16.522Z,8.00
2024-03-08T22:30:45.702Z,8.00
2024-03-08T22:33:13.250Z,8.00
2024-03-08T22:35:40.817Z,8.00
2024-03-08T22:38:10.520Z,7.90
2024-03-08T22:40:38.679Z,8.10
2024-03-08T22:43:08.254Z,8.30
2024-03-08T22:45:35.832Z,8.30
2024-03-08T22:48:05.335Z,8.30
2024-03-08T22:50:38.236Z,8.30
2024-03-08T22:53:06.958Z,8.20
2024-03-08T22:55:34.332Z,8.20
2024-03-08T22:58:02.915Z,8.30
2024-03-08T23:00:39.186Z,8.20
2024-03-08T23:03:12.030Z,7.90
2024-03-08T23:05:42.522Z,7.90
2024-03-08T23:08:10.234Z,8.00
2024-03-08T23:10:40.654Z,7.80
2024-03-08T23:13:11.283Z,8.00
2024-03-08T23:15:43.245Z,8.00
2024-03-08T23:18:13.868Z,8.00
2024-03-08T23:20:45.357Z,7.90
2024-03-08T23:23:13.433Z,8.00
2024-03-08T23:25:42.465Z,8.00
2024-03-08T23:28:16.540Z,8.10
2024-03-08T23:30:45.986Z,8.20
2024-03-08T23:33:16.059Z,8.00
2024-03-08T23:35:46.037Z,7.70
2024-03-08T23:38:15.664Z,7.30
2024-03-08T23:40:43.468Z,7.70
2024-03-08T23:43:10.881Z,7.60
2024-03-08T23:45:39.556Z,7.60
2024-03-08T23:48:07.908Z,7.80
2024-03-08T23:50:36.078Z,7.70
2024-03-08T23:53:08.188Z,7.70
2024-03-08T23:55:37.712Z,7.80
2024-03-08T23:58:13.697Z,8.00
